Aviation Digital Data Service (ADDS)

Output produced by METARs form (1814 UTC 29 May 2015)
found at http://aviationweather.gov/adds/metars/
 
KVQQ 291742Z 2918/3018 08010G15KT P6SM SCT040 
     FM300100 07005KT P6SM FEW035 SCT070 
     FM301000 06003KT P6SM VCSH SCT020 BKN060 
     FM301400 09007KT P6SM VCSH BKN030 BKN050 
     FM301700 09010G15KT P6SM VCSH SCT035 BKN060 BKN250